createdAt,value
2016-04-12T14:00:18.629Z,168
2016-04-12T14:01:18.570Z,172
2016-04-12T14:02:18.650Z,148
2016-04-12T14:03:18.590Z,176
2016-04-12T14:04:18.874Z,192
2016-04-12T14:05:18.565Z,156
2016-04-12T14:06:18.552Z,180
2016-04-12T14:07:18.631Z,252
2016-04-12T14:08:18.603Z,208
2016-04-12T14:09:18.606Z,232
2016-04-12T14:10:18.750Z,296
2016-04-12T14:11:18.753Z,284
2016-04-12T14:12:18.740Z,240
2016-04-12T14:13:18.695Z,212
2016-04-12T14:14:18.980Z,196
2016-04-12T14:15:19.528Z,184
2016-04-12T14:16:19.328Z,168
2016-04-12T14:17:19.080Z,168
2016-04-12T14:18:18.849Z,160
2016-04-12T14:19:19.368Z,156
2016-04-12T14:20:19.135Z,152
2016-04-12T14:21:19.264Z,148
2016-04-12T14:22:19.047Z,144
2016-04-12T14:23:19.129Z,148
2016-04-12T14:24:19.241Z,148
2016-04-12T14:25:20.134Z,188
2016-04-12T14:26:19.137Z,164
2016-04-12T14:27:19.296Z,160
2016-04-12T14:28:19.001Z,156
2016-04-12T14:29:19.067Z,132
2016-04-12T14:30:19.241Z,116
2016-04-12T14:31:19.135Z,112
2016-04-12T14:32:19.075Z,128
2016-04-12T14:33:19.499Z,124
2016-04-12T14:34:19.518Z,124
2016-04-12T14:35:19.239Z,120
2016-04-12T14:36:19.226Z,120
2016-04-12T14:37:19.447Z,128
2016-04-12T14:38:20.278Z,132
2016-04-12T14:39:19.843Z,132
2016-04-12T14:40:19.315Z,132
2016-04-12T14:41:19.318Z,132
2016-04-12T14:42:19.336Z,132
2016-04-12T14:43:19.620Z,132
2016-04-12T14:44:19.575Z,136
2016-04-12T14:45:19.656Z,136
2016-04-12T14:46:19.441Z,132
2016-04-12T14:47:19.489Z,136
2016-04-12T14:48:19.430Z,136
2016-04-12T14:49:19.511Z,132
2016-04-12T14:50:19.638Z,128
2016-04-12T14:51:19.813Z,120
2016-04-12T14:52:19.957Z,116
2016-04-12T14:53:19.897Z,116
2016-04-12T14:54:19.633Z,128
2016-04-12T14:55:20.199Z,132
2016-04-12T14:56:19.842Z,132
2016-04-12T14:57:19.657Z,116
2016-04-12T14:58:19.723Z,112
2016-04-12T14:59:19.726Z,112
2016-04-12T15:00:19.713Z,108
2016-04-12T15:01:19.825Z,116
2016-04-12T15:02:19.749Z,112
2016-04-12T15:03:20.862Z,120
2016-04-12T15:04:20.270Z,116
2016-04-12T15:05:20.288Z,124
2016-04-12T15:06:19.823Z,116
2016-04-12T15:07:19.856Z,128
2016-04-12T15:08:19.953Z,132
2016-04-12T15:09:19.955Z,136
2016-04-12T15:10:20.598Z,128
2016-04-12T15:11:19.883Z,136
2016-04-12T15:12:19.964Z,136
2016-04-12T15:13:19.935Z,132
2016-04-12T15:14:23.875Z,128
2016-04-12T15:15:20.081Z,124
2016-04-12T15:16:20.052Z,132
2016-04-12T15:17:20.055Z,128
2016-04-12T15:18:20.027Z,132
2016-04-12T15:19:20.044Z,136
2016-04-12T15:20:21.953Z,152
2016-04-12T15:21:21.534Z,160
2016-04-12T15:22:20.240Z,148
2016-04-12T15:23:20.227Z,140
2016-04-12T15:24:20.136Z,132
2016-04-12T15:25:20.342Z,132
2016-04-12T15:26:20.219Z,124
2016-04-12T15:27:25.566Z,120
2016-04-12T15:28:20.178Z,124
2016-04-12T15:29:20.681Z,120
2016-04-12T15:30:20.637Z,116
2016-04-12T15:31:20.640Z,116
2016-04-12T15:32:20.346Z,124
2016-04-12T15:33:20.333Z,128
2016-04-12T15:34:20.413Z,112
2016-04-12T15:35:20.432Z,120
2016-04-12T15:36:20.481Z,104
2016-04-12T15:37:20.562Z,104
2016-04-12T15:38:20.424Z,104
2016-04-12T15:39:20.458Z,120
2016-04-12T15:40:20.789Z,132
2016-04-12T15:41:20.525Z,128
2016-04-12T15:42:20.559Z,128
2016-04-12T15:43:20.687Z,132
2016-04-12T15:44:20.675Z,136
2016-04-12T15:45:20.678Z,140
2016-04-12T15:46:20.789Z,140
2016-04-12T15:47:20.683Z,144
2016-04-12T15:48:20.716Z,136
2016-04-12T15:49:21.094Z,136
2016-04-12T15:50:21.238Z,136
2016-04-12T15:51:21.068Z,132
2016-04-12T15:52:21.071Z,136
2016-04-12T15:53:21.401Z,132
2016-04-12T15:54:21.764Z,132
2016-04-12T15:55:23.704Z,140
2016-04-12T15:56:22.629Z,156
2016-04-12T15:57:23.819Z,156
2016-04-12T15:58:20.853Z,140
2016-04-12T15:59:20.918Z,116
2016-04-12T16:00:21.249Z,112
2016-04-12T16:01:21.032Z,108
2016-04-12T16:02:21.176Z,108
2016-04-12T16:03:21.648Z,108
2016-04-12T16:04:21.572Z,108
2016-04-12T16:05:21.685Z,104
2016-04-12T16:06:21.593Z,104
2016-04-12T16:07:21.284Z,108
2016-04-12T16:08:22.020Z,104
2016-04-12T16:09:21.039Z,100
2016-04-12T16:10:21.338Z,96
2016-04-12T16:11:21.153Z,96
2016-04-12T16:12:21.218Z,96
2016-04-12T16:13:21.392Z,96
2016-04-12T16:14:21.333Z,92
2016-04-12T16:15:21.133Z,92
2016-04-12T16:16:21.292Z,88
2016-04-12T16:17:22.076Z,88
2016-04-12T16:18:22.578Z,88
2016-04-12T16:19:25.862Z,84
2016-04-12T16:20:22.193Z,72
2016-04-12T16:21:23.852Z,72
2016-04-12T16:22:24.494Z,68
2016-04-12T16:23:21.482Z,76
2016-04-12T16:24:21.454Z,76
2016-04-12T16:25:21.502Z,76
2016-04-12T16:26:21.678Z,76
2016-04-12T16:27:21.524Z,72
2016-04-12T16:28:21.855Z,68
2016-04-12T16:29:21.796Z,60
2016-04-12T16:30:22.392Z,60
2016-04-12T16:31:21.582Z,60
2016-04-12T16:32:21.554Z,56
2016-04-12T16:33:21.603Z,56
2016-04-12T16:34:21.590Z,52
2016-04-12T16:35:21.890Z,52
2016-04-12T16:36:21.815Z,48
2016-04-12T16:37:21.833Z,48
2016-04-12T16:38:21.898Z,48
2016-04-12T16:39:21.885Z,52
2016-04-12T16:40:21.903Z,60
2016-04-12T16:41:22.015Z,60
2016-04-12T16:42:21.830Z,64
2016-04-12T16:43:22.098Z,64
2016-04-12T16:44:21.914Z,64
2016-04-12T16:45:22.353Z,60
2016-04-12T16:46:22.263Z,60
2016-04-12T16:47:22.062Z,56
2016-04-12T16:48:22.503Z,56
2016-04-12T16:49:22.279Z,52
2016-04-12T16:50:24.838Z,52
2016-04-12T16:51:23.007Z,52
2016-04-12T16:52:23.456Z,48
2016-04-12T16:53:22.734Z,44
2016-04-12T16:54:22.595Z,44
2016-04-12T16:55:24.597Z,40
2016-04-12T16:56:22.974Z,40
2016-04-12T16:57:23.007Z,40
2016-04-12T16:58:22.555Z,40
2016-04-12T16:59:22.580Z,40
2016-04-12T17:00:22.884Z,40
2016-04-12T17:01:23.611Z,40
2016-04-12T17:02:22.619Z,36
2016-04-12T17:03:22.658Z,36
2016-04-12T17:04:22.476Z,32
2016-04-12T17:05:22.496Z,32
2016-04-12T17:06:22.594Z,32
2016-04-12T17:07:22.568Z,32
2016-04-12T17:08:22.526Z,32
2016-04-12T17:09:22.606Z,28
2016-04-12T17:10:22.626Z,32
2016-04-12T17:11:22.629Z,28
2016-04-12T17:12:22.866Z,28
2016-04-12T17:13:23.073Z,28
2016-04-12T17:14:22.733Z,24
2016-04-12T17:15:22.766Z,24
2016-04-12T17:16:23.175Z,24
2016-04-12T17:17:22.958Z,24
2016-04-12T17:18:23.024Z,24
2016-04-12T17:19:23.043Z,24
2016-04-12T17:20:23.013Z,24
2016-04-12T17:21:22.891Z,20
2016-04-12T17:22:23.051Z,20
2016-04-12T17:23:22.944Z,20
2016-04-12T17:24:22.947Z,20
2016-04-12T17:25:22.902Z,16
2016-04-12T17:26:22.937Z,16
2016-04-12T17:27:22.940Z,20
2016-04-12T17:28:22.957Z,16
2016-04-12T17:29:22.976Z,16
2016-04-12T17:30:23.009Z,16
2016-04-12T17:31:23.012Z,36
2016-04-12T17:32:23.031Z,16
2016-04-12T17:33:23.081Z,12
2016-04-12T17:34:23.098Z,12
2016-04-12T17:35:23.117Z,12
2016-04-12T17:36:23.135Z,12
2016-04-12T17:37:23.185Z,12
2016-04-12T17:38:23.265Z,12
2016-04-12T17:39:23.206Z,8
2016-04-12T17:40:23.224Z,8
2016-04-12T17:41:23.227Z,12
2016-04-12T17:42:23.261Z,12
2016-04-12T17:43:23.107Z,8
2016-04-12T17:44:23.297Z,8
2016-04-12T17:45:23.316Z,8
2016-04-12T17:46:23.333Z,8
2016-04-12T17:47:23.352Z,8
2016-04-12T17:48:23.370Z,8
2016-04-12T17:49:23.374Z,4
2016-04-12T17:50:23.752Z,4
2016-04-12T17:51:23.425Z,8
2016-04-12T17:52:23.444Z,4
2016-04-12T17:53:23.493Z,4
2016-04-12T17:54:23.480Z,4
2016-04-12T17:55:23.499Z,0
2016-04-12T17:56:23.532Z,4
2016-04-12T17:57:23.535Z,4
2016-04-12T17:58:23.568Z,4
2016-04-12T17:59:23.587Z,4
2016-04-12T18:00:23.591Z,0
2016-04-12T18:01:23.687Z,0
2016-04-12T18:02:23.658Z,4
2016-04-12T18:03:23.676Z,4
2016-04-12T18:04:23.679Z,4
2016-04-12T18:05:23.995Z,0
2016-04-12T18:06:23.716Z,0
2016-04-12T18:07:23.750Z,0
2016-04-12T18:08:23.752Z,0
2016-04-12T18:09:23.770Z,0
2016-04-12T18:10:23.789Z,0
2016-04-12T18:11:23.822Z,0
2016-04-12T18:12:23.825Z,0
2016-04-12T18:13:23.859Z,0
2016-04-12T18:14:23.878Z,0
2016-04-12T18:15:23.959Z,0
2016-04-12T18:16:23.930Z,0
2016-04-12T18:17:23.949Z,0
2016-04-12T18:18:23.966Z,0
2016-04-12T18:19:24.000Z,0
2016-04-12T18:20:24.378Z,0
2016-04-12T18:21:23.865Z,0
2016-04-12T18:22:24.040Z,0
2016-04-12T18:23:24.058Z,0
2016-04-12T18:24:24.077Z,0
2016-04-12T18:25:23.924Z,0
2016-04-12T18:26:24.113Z,0
2016-04-12T18:27:24.147Z,0
2016-04-12T18:28:24.150Z,0
2016-04-12T18:29:24.184Z,0
2016-04-12T18:30:24.202Z,0
2016-04-12T18:31:24.204Z,0
2016-04-12T18:32:24.223Z,0
2016-04-12T18:33:24.226Z,0
2016-04-12T18:34:24.276Z,0
2016-04-12T18:35:24.419Z,0
2016-04-12T18:36:24.296Z,0
2016-04-12T18:37:24.331Z,0
2016-04-12T18:38:24.333Z,0
2016-04-12T18:39:24.336Z,0
2016-04-12T18:40:24.401Z,0
2016-04-12T18:41:24.466Z,0
2016-04-12T18:42:24.453Z,0
2016-04-12T18:43:24.424Z,0
2016-04-12T18:44:24.458Z,0
2016-04-12T18:45:24.461Z,0
2016-04-12T18:46:24.526Z,0
2016-04-12T18:47:24.497Z,0
2016-04-12T18:48:24.532Z,0
2016-04-12T18:49:24.675Z,0
2016-04-12T18:50:24.724Z,0
2016-04-12T18:51:24.586Z,0
2016-04-12T18:52:24.621Z,0
2016-04-12T18:53:24.638Z,0
2016-04-12T18:54:24.657Z,0
2016-04-12T18:55:24.660Z,0
2016-04-12T18:56:24.757Z,0
2016-04-12T18:57:24.712Z,0
2016-04-12T18:58:24.715Z,0
2016-04-12T18:59:24.733Z,0
2016-04-12T19:00:24.783Z,0
2016-04-12T19:01:24.833Z,0
2016-04-12T19:02:24.804Z,0
2016-04-12T19:03:24.807Z,0
2016-04-12T19:04:24.840Z,0
2016-04-12T19:05:25.265Z,0
2016-04-12T19:06:24.909Z,0
2016-04-12T19:07:24.911Z,0
2016-04-12T19:08:24.961Z,0
2016-04-12T19:09:24.964Z,0
2016-04-12T19:10:24.967Z,0
2016-04-12T19:11:25.000Z,0
2016-04-12T19:12:25.003Z,0
2016-04-12T19:13:25.020Z,0
2016-04-12T19:14:25.836Z,0
2016-04-12T19:15:25.120Z,0
2016-04-12T19:16:25.092Z,0
2016-04-12T19:17:25.095Z,0
2016-04-12T19:18:25.144Z,0
2016-04-12T19:19:25.131Z,0
2016-04-12T19:20:25.119Z,0
2016-04-12T19:21:25.183Z,0
2016-04-12T19:22:25.186Z,0
2016-04-12T19:23:25.220Z,0
2016-04-12T19:24:25.269Z,32
2016-04-12T19:25:25.257Z,28
2016-04-12T19:26:25.275Z,28
2016-04-12T19:27:25.294Z,28
2016-04-12T19:28:25.311Z,28
2016-04-12T19:29:25.377Z,28
2016-04-12T19:30:25.411Z,28
2016-04-12T19:31:25.398Z,28
2016-04-12T19:32:25.384Z,24
2016-04-12T19:33:25.403Z,28
2016-04-12T19:34:25.421Z,28
2016-04-12T19:35:25.377Z,28
2016-04-12T19:36:25.473Z,28
2016-04-12T19:37:25.492Z,28
2016-04-12T19:38:25.853Z,28
2016-04-12T19:39:25.497Z,28
2016-04-12T19:40:25.531Z,28
2016-04-12T19:41:25.564Z,28
2016-04-12T19:42:25.661Z,28
2016-04-12T19:43:25.601Z,28
2016-04-12T19:44:25.620Z,24
2016-04-12T19:45:25.623Z,24
2016-04-12T19:46:25.672Z,24
2016-04-12T19:47:25.706Z,24
2016-04-12T19:48:25.693Z,24
2016-04-12T19:49:25.728Z,24
2016-04-12T19:50:25.745Z,28
2016-04-12T19:51:25.748Z,24
2016-04-12T19:52:25.797Z,24
2016-04-12T19:53:25.816Z,24
2016-04-12T19:54:25.819Z,24
2016-04-12T19:55:25.900Z,24
2016-04-12T19:56:25.918Z,24
2016-04-12T19:57:25.952Z,24
2016-04-12T19:58:25.938Z,24
2016-04-12T19:59:25.910Z,24
2016-04-12T20:00:26.694Z,24
2016-04-12T20:01:26.056Z,24
2016-04-12T20:02:26.043Z,24
2016-04-12T20:03:26.046Z,24
2016-04-12T20:04:26.017Z,24
2016-04-12T20:05:26.146Z,24
2016-04-12T20:06:26.132Z,24
2016-04-12T20:07:26.073Z,24
2016-04-12T20:08:26.216Z,24
2016-04-12T20:09:26.112Z,24
2016-04-12T20:10:26.146Z,24
2016-04-12T20:11:26.150Z,24
2016-04-12T20:12:26.152Z,24
2016-04-12T20:13:26.171Z,24
2016-04-12T20:14:26.189Z,24
2016-04-12T20:15:26.207Z,24
2016-04-12T20:16:26.241Z,24
2016-04-12T20:17:26.259Z,24
2016-04-12T20:18:26.325Z,24
2016-04-12T20:19:26.312Z,24
2016-04-12T20:20:26.377Z,24
2016-04-12T20:21:26.333Z,24
2016-04-12T20:22:26.367Z,0
2016-04-12T20:23:26.385Z,0
2016-04-12T20:24:26.435Z,0
2016-04-12T20:25:26.421Z,0
2016-04-12T20:26:26.455Z,0
2016-04-12T20:27:26.505Z,0
2016-04-12T20:28:26.476Z,0
2016-04-12T20:29:26.495Z,0
2016-04-12T20:30:26.513Z,0
2016-04-12T20:31:26.547Z,0
2016-04-12T20:32:26.565Z,0
2016-04-12T20:33:26.631Z,0
2016-04-12T20:34:26.617Z,0
2016-04-12T20:35:26.620Z,0
2016-04-12T20:36:26.670Z,0
2016-04-12T20:37:26.642Z,0
2016-04-12T20:38:26.675Z,0
2016-04-12T20:39:26.725Z,0
2016-04-12T20:40:26.697Z,0
2016-04-12T20:41:26.730Z,0
2016-04-12T20:42:26.764Z,0
2016-04-12T20:43:26.752Z,0
2016-04-12T20:44:26.802Z,0
2016-04-12T20:45:26.991Z,0
2016-04-12T20:46:26.822Z,0
2016-04-12T20:47:26.903Z,0
2016-04-12T20:48:26.921Z,0
2016-04-12T20:49:26.877Z,0
2016-04-12T20:50:26.911Z,0
2016-04-12T20:51:26.929Z,0
2016-04-12T20:52:26.948Z,0
2016-04-12T20:53:26.997Z,0
2016-04-12T20:54:26.984Z,0
2016-04-12T20:55:26.987Z,0
2016-04-12T20:56:27.052Z,0
2016-04-12T20:57:27.304Z,0
2016-04-12T20:58:27.073Z,0
2016-04-12T20:59:27.076Z,0
2016-04-12T21:00:27.156Z,0
2016-04-12T21:01:27.128Z,28
2016-04-12T21:02:27.303Z,28
2016-04-12T21:03:27.320Z,0
2016-04-12T21:04:27.183Z,0
2016-04-12T21:05:27.295Z,0
2016-04-12T21:06:27.250Z,0
2016-04-12T21:07:27.347Z,0
2016-04-12T21:08:27.287Z,0
2016-04-12T21:09:27.305Z,0
2016-04-12T21:10:27.402Z,0
2016-04-12T21:11:27.435Z,0
2016-04-12T21:12:27.595Z,0
2016-04-12T21:13:27.441Z,0
2016-04-12T21:14:27.491Z,0
2016-04-12T21:15:30.180Z,0
2016-04-12T21:16:27.544Z,0
2016-04-12T21:17:27.562Z,0
2016-04-12T21:18:27.470Z,0
2016-04-12T21:19:27.473Z,0
2016-04-12T21:20:27.507Z,0
2016-04-12T21:21:27.572Z,0
2016-04-12T21:22:27.544Z,0
2016-04-12T21:23:27.562Z,0
2016-04-12T21:24:27.580Z,0
2016-04-12T21:25:27.630Z,0
2016-04-12T21:26:27.585Z,0
2016-04-12T21:27:27.620Z,0
2016-04-12T21:28:27.654Z,0
2016-04-12T21:29:27.672Z,4
2016-04-12T21:30:27.534Z,4
2016-04-12T21:31:27.709Z,4
2016-04-12T21:32:27.742Z,4
2016-04-12T21:33:27.808Z,4
2016-04-12T21:34:27.811Z,4
2016-04-12T21:35:27.828Z,4
2016-04-12T21:36:27.847Z,4
2016-04-12T21:37:27.819Z,4
2016-04-12T21:38:27.868Z,4
2016-04-12T21:39:27.871Z,4
2016-04-12T21:40:27.873Z,4
2016-04-12T21:41:28.454Z,4
2016-04-12T21:42:27.910Z,4
2016-04-12T21:43:27.960Z,4
2016-04-12T21:44:27.963Z,4
2016-04-12T21:45:27.997Z,4
2016-04-12T21:46:27.999Z,4
2016-04-12T21:47:28.017Z,4
2016-04-12T21:48:28.052Z,4
2016-04-12T21:49:28.055Z,4
2016-04-12T21:50:28.104Z,4
2016-04-12T21:51:28.091Z,4
2016-04-12T21:52:28.374Z,4
2016-04-12T21:53:28.362Z,4
2016-04-12T21:54:28.301Z,4
2016-04-12T21:55:28.398Z,4
2016-04-12T21:56:28.495Z,4
2016-04-12T21:57:28.293Z,4
2016-04-12T21:59:27.268Z,4
2016-04-12T22:00:27.459Z,4
2016-04-12T22:01:33.368Z,4
2016-04-12T22:02:28.527Z,4
2016-04-12T22:03:28.748Z,4
2016-04-12T22:04:27.704Z,4
2016-04-12T22:05:30.098Z,4
2016-04-12T22:06:30.272Z,4
2016-04-12T22:07:32.040Z,4
2016-04-12T22:08:33.042Z,4
2016-04-12T22:09:27.951Z,4
2016-04-12T22:10:27.939Z,4
2016-04-12T22:11:27.488Z,4
2016-04-12T22:12:28.288Z,4
2016-04-12T22:13:27.931Z,4
2016-04-12T22:14:28.028Z,4
